Thule Air Base
BGTL : rendu visible

Aérodrome :











RETROUVEZ-NOUS SUR...

 
LOGIN :

S'inscrire | Disclaimer

   EN    FR    IT 

 









Légende :    VFR   VFR Marginal   IFR   IFR Intensif   IFR Très Intensif
Visi : 
Plafond : 
>= 8 km
>= 3000ft
5 à 8 km
1000 à 3000 ft
1500m à 5 km
500 à 1000 ft
800 à 1500m
200 à 500 ft
< 800m
< 200 ft
Symboles :   Orages  Brouillard  Fortes neiges  Fortes précipitations  Vent > 20 kt






- Altitude de l'aérodrome : 251 ft
- Code IATA : THU


BGTL - Thule Air Base

DERNIER METAR :
  • 072056Z AUTO 08005KT 9999 CLR M17/M19 A2954 RMK AO2 SLP994 T11671190 52013 TSNO $

METARs EXPIRÉS :
  • 071956Z AUTO 10004KT 9999 BKN037 M15/M17 A2953 RMK AO2 SLP990 T11531174 TSNO $

TAF TAF BGTL
Valide du 06 à 18h jusqu'au 08 à 00h UTC


061800Z 0618/0724 12009KT 9999 SCT120 QNH2958INS
BECMG 0620/0621 14012G18KT 9999 SKC 510009 QNH2945INS
BECMG 0706/0707 VRB06KT 9999 SKC QNH2944INS
BECMG 0711/0712 14012KT 9999 SCT030 BKN065 620651 QNH2944INS
BECMG 0723/0724 14012KT 9999 BKN030 OVC065 620304 QNH2958INS TXM10/0709Z TNM26/0700Z LAST NO AMDS AFT 0620 NEXT 0910



MET'MAP, la Météo Aéronautique d'un coup d'oeil ! - Copyright ORBIFLY Décembre 2007 - Disclaimer

ORBIFLY MET'MAP TEAM :

Programmation & Développement : Alexandra Zaïnal
Sur une idée originale de : Baudouin d'Aumeries
Assistance à la programmation : Marc-Olivier Méhu
Soutien technique & logistique : Manuel Goepfert

Contact : metmap@orbifly.com




SOURCES & CREDITS :

   NOAA       Earth
Advisory